This is the latest recevied weather packets stored in our database for station/object K9RCP-24. If no packets are shown the sender has not sent any weather packets the latest 10 day(s).
| Time | Temp. | Humidity | Pressure | Rain* | Wind** | Luminosity | Snow |
|---|---|---|---|---|---|---|---|
| 1777837794 | 28.89° C | 34% | 1013.2 hPa | 4.32 mm | - | - | - |
| 1777837012 | 28.89° C | 34% | 1013.2 hPa | 4.32 mm | - | - | - |
| 1777836888 | 28.89° C | 35% | 1012.9 hPa | 4.32 mm | - | - | - |
| 1777836866 | 28.89° C | 34% | 1012.9 hPa | 4.32 mm | - | - | - |
| 1777836106 | 28.89° C | 35% | 1013.2 hPa | 4.32 mm | - | - | - |
| 1777829446 | 23.89° C | 55% | 1012.5 hPa | 0 mm | - | - | - |
| 1777827733 | 22.78° C | 58% | 1012.9 hPa | 0 mm | - | - | - |
| 1777827610 | 22.78° C | 58% | 1012.5 hPa | 0 mm | - | - | - |
| 1777825274 | 19.44° C | 66% | 1012.9 hPa | 0 mm | - | - | - |
| 1777824901 | 19.44° C | 66% | 1012.9 hPa | 0 mm | - | - | - |
| 1777824374 | 18.89° C | 69% | 1012.9 hPa | 0 mm | - | - | - |
| 1777824250 | 18.33° C | 70% | 1012.9 hPa | 0 mm | - | - | - |
| 1777824127 | 18.33° C | 71% | 1012.9 hPa | 0 mm | - | - | - |
| 1777823597 | 17.22° C | 75% | 1012.9 hPa | 0 mm | - | - | - |
| 1777822825 | 16.11° C | 76% | 1012.9 hPa | 0 mm | - | - | - |
| 1777822070 | 16.11° C | 76% | 1012.9 hPa | 0 mm | - | - | - |
| 1777821506 | 16.67° C | 74% | 1012.9 hPa | 0 mm | - | - | - |
| 1777820503 | 16.67° C | 72% | 1013.2 hPa | 0 mm | - | - | - |
| 1777819598 | 15.56° C | 73% | 1013.2 hPa | 0 mm | - | - | - |
| 1777819295 | 15° C | 76% | 1013.2 hPa | 0 mm | - | - | - |
| 1777818880 | 14.44° C | 77% | 1013.2 hPa | 0 mm | - | - | - |
| 1777818477 | 14.44° C | 77% | 1012.9 hPa | 0 mm | - | - | - |
| 1777817697 | 13.33° C | 81% | 1013.2 hPa | 0 mm | - | - | - |
| 1777817326 | 12.22° C | 83% | 1012.9 hPa | 0 mm | - | - | - |
| 1777816951 | 11.67° C | 85% | 1012.9 hPa | 0 mm | - | - | - |
* Rain latest hour (hover to see other rain measurements)
** Current wind speed in m/s (hover to see current wind gust speed)